Terminal Aerodrome Forecast
Issued by NWS

Home | Current Version | Previous Version | Text Only | Print | Product List | Glossary Off
Versions: 1 2 3 4 5 6 7 8 9 10 11 12 13 14 15 16 17 18 19 20 21 22 23 24 25 26

000
FTUS41 KCLE 031700
TAFFDY
TAF
KFDY 031733Z 0318/0418 14011KT 5SM -FZRA OVC025
     FM031900 16011KT 5SM -FZRA BR SCT016 OVC025
     FM032000 19013G20KT 5SM -RA BR OVC015 WS020/23040KT
     FM040100 25015G25KT 6SM -RA BR SCT005 OVC015 WS020/22045KT
     FM040400 28015KT 6SM -SN BKN018
     FM041200 29012KT P6SM BKN045=

USA.gov is the U.S. government's official web portal to all federal, state and local government web resources and services.